Data for 09/09/2007

Time Sea-Level Adjusted Pressure Absolute Pressure Temperature Relative Humidity Dew Point   
(mb) (inHg) (mb) (inHg) (C) (F) (%) (C) (F)
00:05 1025 30.27 854 25.22 7.4 45.3 69 2 35.7
00:10 1025 30.27 854 25.22 7.3 45.2 69 2 35.6
00:15 1025 30.27 854 25.22 7.3 45.1 69 1.9 35.5
00:20 1025 30.27 854 25.22 7.3 45.1 69 2 35.6
00:25 1025 30.27 854 25.22 7.2 44.9 70 2 35.6
00:30 1025 30.27 854 25.22 7.1 44.8 70 2 35.7
00:35 1025 30.27 854 25.22 7 44.6 71 2 35.7
00:40 1025 30.27 854 25.22 7 44.5 71 2.1 35.7
00:45 1025 30.27 854 25.22 6.9 44.4 71 2.1 35.7
00:50 1025 30.27 854 25.22 6.9 44.5 71 2.1 35.8
00:55 1025 30.27 854 25.22 6.9 44.3 72 2.1 35.8
01:00 1025 30.27 854 25.22 6.9 44.4 72 2.2 35.9
01:05 1025 30.27 854 25.22 6.8 44.3 72 2.2 36
01:10 1025 30.27 854 25.22 6.9 44.3 72 2.1 35.9
01:15 1025 30.27 854 25.22 7 44.5 73 2.4 36.3
01:20 1025 30.27 854 25.22 6.9 44.4 73 2.5 36.4
01:25 1025 30.27 854 25.22 6.9 44.4 73 2.5 36.4
01:30 1025 30.27 854 25.22 6.9 44.4 74 2.6 36.7
01:35 1025 30.27 854 25.22 6.8 44.3 75 2.7 36.8
01:40 1025 30.27 854 25.22 6.7 44.1 75 2.7 36.8
01:45 1025 30.27 854 25.22 6.7 44.1 75 2.7 36.8
01:50 1025 30.27 854 25.22 6.8 44.2 75 2.7 36.9
01:55 1025 30.27 854 25.22 6.8 44.2 75 2.7 36.8
02:00 1025 30.27 854 25.22 6.8 44.3 74 2.6 36.7
02:05 1025 30.27 854 25.22 6.9 44.4 75 2.7 36.9
02:10 1025 30.27 854 25.22 6.9 44.4 74 2.6 36.7
02:15 1025 30.27 854 25.22 6.9 44.5 74 2.6 36.7
02:20 1025 30.27 854 25.22 7 44.5 74 2.6 36.7
02:25 1025 30.27 854 25.22 7 44.6 74 2.7 36.8
02:30 1025 30.27 854 25.22 7 44.6 73 2.5 36.6
02:35 1025 30.27 854 25.22 7 44.6 74 2.8 37
02:40 1025 30.27 854 25.22 6.9 44.5 74 2.7 36.9
02:45 1025 30.27 854 25.22 6.9 44.5 74 2.7 36.8
02:50 1025 30.27 854 25.22 6.9 44.4 74 2.7 36.8
02:55 1025 30.27 854 25.22 6.9 44.4 74 2.7 36.8
03:00 1025 30.27 854 25.22 6.8 44.2 75 2.7 36.9
03:05 1025 30.27 854 25.22 6.7 44 75 2.6 36.7
03:10 1025 30.27 854 25.22 6.6 43.8 76 2.7 36.8
03:15 1025 30.27 854 25.22 6.5 43.7 77 2.7 36.9
03:20 1025 30.27 854 25.22 6.3 43.3 78 2.7 36.9
03:25 1025 30.27 854 25.22 6.1 43 79 2.7 36.9
03:30 1025 30.27 854 25.22 6 42.8 79 2.6 36.7
03:35 1025 30.27 854 25.22 6 42.7 80 2.7 36.8
03:40 1025 30.27 854 25.22 5.8 42.5 80 2.6 36.7
03:45 1025 30.27 854 25.22 5.7 42.3 80 2.6 36.7
03:50 1025 30.27 854 25.22 5.7 42.3 80 2.5 36.6
03:55 1025 30.27 854 25.22 5.8 42.4 80 2.6 36.7
04:00 1025 30.27 854 25.22 5.8 42.5 80 2.6 36.7
04:05 1025 30.27 854 25.22 5.9 42.6 80 2.7 36.9
04:10 1025 30.27 854 25.22 5.8 42.4 81 2.7 36.9
04:15 1025 30.27 854 25.22 5.8 42.4 80 2.6 36.7
04:20 1025 30.27 854 25.22 5.9 42.6 80 2.6 36.7
04:25 1025 30.27 854 25.22 6 42.8 80 2.7 36.9
04:30 1025 30.27 854 25.22 6 42.8 80 2.8 37.1
04:35 1025 30.27 854 25.22 5.9 42.7 81 2.9 37.1
04:40 1025 30.27 854 25.22 5.9 42.6 81 2.8 37.1
04:45 1025 30.27 854 25.22 5.9 42.7 80 2.8 37.1
04:50 1025 30.27 854 25.22 6 42.8 80 2.8 37.1
04:55 1025 30.27 854 25.22 6 42.8 80 2.8 37.1
05:00 1025 30.27 854 25.22 6.1 43 80 2.9 37.2
05:05 1025 30.27 854 25.22 6.2 43.1 80 2.9 37.3
05:10 1025 30.27 854 25.22 6.2 43.1 79 2.9 37.2
05:15 1025 30.27 854 25.22 6.2 43.2 79 2.9 37.2
05:20 1025 30.27 854 25.22 6.3 43.3 79 3 37.3
05:25 1025 30.27 854 25.22 6.3 43.3 79 3 37.3
05:30 1025 30.27 854 25.22 6.3 43.3 79 2.9 37.3
05:35 1025 30.27 854 25.22 6.3 43.3 79 2.9 37.3
05:40 1025 30.27 854 25.22 6.3 43.4 79 2.9 37.3
05:45 1025 30.27 854 25.22 6.4 43.5 79 3 37.3
05:50 1025 30.27 854 25.22 6.3 43.4 80 3.1 37.6
05:55 1025 30.27 854 25.22 6.3 43.3 79 2.8 37.1
06:00 1025 30.27 854 25.22 6.3 43.3 77 2.6 36.7
06:05 1025 30.27 854 25.22 6.3 43.4 76 2.4 36.3
06:10 1025 30.27 854 25.22 6.2 43.2 75 2.1 35.8
06:15 1025 30.27 854 25.22 6 42.7 76 2 35.6
06:20 1025 30.27 854 25.22 5.8 42.5 76 2 35.6
06:25 1025 30.27 854 25.22 5.6 42 77 1.8 35.3
06:30 1025 30.27 854 25.22 5.6 42 77 1.8 35.3
06:35 1025 30.27 854 25.22 5.3 41.6 78 1.8 35.3
06:40 1025 30.27 854 25.22 5.2 41.3 78 1.6 34.9
06:45 1025 30.27 854 25.22 5.4 41.7 77 1.6 34.8
06:50 1025 30.27 854 25.22 5.5 41.9 77 1.7 35.1
06:55 1025 30.27 854 25.22 5.5 41.9 77 1.7 35.1
07:00 1025 30.27 854 25.22 5.4 41.7 76 1.5 34.8
07:05 1025 30.27 854 25.22 5.6 42.1 75 1.5 34.7
07:10 1025 30.27 854 25.22 5.6 42 76 1.6 34.9
07:15 1025 30.27 854 25.22 5.5 42 76 1.6 34.8
07:20 1025 30.27 854 25.22 5.7 42.3 75 1.6 34.9
07:25 1025 30.27 854 25.22 5.9 42.7 74 1.7 35
07:30 1025 30.27 855 25.25 5.9 42.7 75 1.8 35.3
07:35 1025 30.27 855 25.25 5.8 42.5 75 1.7 35.1
07:40 1025 30.27 855 25.25 6 42.8 74 1.7 35.1
07:45 1026 30.3 855 25.25 6.1 42.9 74 1.8 35.2
07:50 1026 30.3 855 25.25 6.1 43 74 1.8 35.2
07:55 1026 30.3 855 25.25 6.2 43.1 74 1.9 35.3
08:00 1026 30.3 855 25.25 6 42.8 74 1.7 35.1
08:05 1026 30.3 855 25.25 6.1 42.9 74 1.9 35.4
08:10 1026 30.3 855 25.25 6.1 43 74 1.8 35.2
08:15 1026 30.3 855 25.25 6.2 43.2 73 1.8 35.3
08:20 1026 30.3 855 25.25 6.4 43.4 73 1.9 35.4
08:25 1026 30.3 855 25.25 6.4 43.6 73 1.9 35.5
08:30 1026 30.3 855 25.25 6.5 43.7 73 2 35.6
08:35 1026 30.3 855 25.25 6.4 43.4 75 2.2 36
08:40 1026 30.3 855 25.25 5.8 42.4 76 1.8 35.3
08:45 1026 30.3 855 25.25 5.7 42.3 76 1.8 35.2
08:50 1026 30.3 855 25.25 5.7 42.2 76 1.8 35.2
08:55 1026 30.3 855 25.25 5.7 42.2 75 1.6 35
09:00 1026 30.3 855 25.25 5.8 42.4 75 1.7 35.1
09:05 1026 30.3 855 25.25 5.8 42.4 75 1.7 35.1
09:10 1026 30.3 855 25.25 6 42.7 75 1.9 35.4
09:15 1026 30.3 855 25.25 6 42.8 75 2 35.6
09:20 1026 30.3 855 25.25 5.7 42.2 77 1.9 35.4
09:25 1026 30.3 855 25.25 5.6 42.1 77 1.9 35.4
09:30 1026 30.3 855 25.25 5.8 42.4 76 1.9 35.4
09:35 1026 30.3 855 25.25 6 42.8 76 2.1 35.7
09:40 1026 30.3 855 25.25 6.3 43.4 74 2 35.5
09:45 1026 30.3 855 25.25 6.8 44.3 71 2 35.7
09:50 1026 30.3 855 25.25 7.1 44.8 70 2.1 35.8
09:55 1026 30.3 855 25.25 7.1 44.8 71 2.2 36
10:00 1026 30.3 855 25.25 7.4 45.3 70 2.3 36.1
10:05 1026 30.3 855 25.25 7.7 45.8 69 2.3 36.1
10:10 1026 30.3 855 25.25 7.9 46.2 69 2.5 36.6
10:15 1026 30.3 855 25.25 8.2 46.8 68 2.7 36.8
10:20 1026 30.3 855 25.25 8.5 47.2 66 2.6 36.7
10:25 1026 30.3 855 25.25 8.3 46.9 68 2.7 36.8
10:30 1026 30.3 855 25.25 8.5 47.3 66 2.6 36.6
10:35 1026 30.3 855 25.25 9 48.2 65 2.7 36.9
10:40 1026 30.3 855 25.25 9.3 48.7 64 2.8 37
10:45 1026 30.3 855 25.25 9.2 48.6 64 2.7 36.9
10:50 1026 30.3 855 25.25 8.9 48.1 65 2.8 37.1
10:55 1026 30.3 855 25.25 8.7 47.7 65 2.5 36.6
11:00 1026 30.3 856 25.28 9 48.2 65 2.8 37
11:05 1026 30.3 856 25.28 8.8 47.8 64 2.5 36.4
11:10 1026 30.3 856 25.28 9.3 48.8 62 2.4 36.4
11:15 1026 30.3 856 25.28 9.5 49.1 62 2.7 36.9
11:20 1026 30.3 856 25.28 9.5 49.1 62 2.6 36.7
11:25 1026 30.3 856 25.28 9.3 48.8 65 3 37.4
11:30 1026 30.3 856 25.28 9.4 48.8 62 2.4 36.3
11:35 1026 30.3 856 25.28 9.3 48.7 62 2.5 36.4
11:40 1026 30.3 856 25.28 9.2 48.6 63 2.5 36.5
11:45 1026 30.3 856 25.28 9.6 49.4 60 2.3 36.2
11:50 1026 30.3 856 25.28 10.4 50.6 56 2 35.6
11:55 1026 30.3 855 25.25 11.6 52.9 51 1.9 35.4
12:00 1026 30.3 855 25.25 11.5 52.7 54 2.5 36.5
12:05 1026 30.3 855 25.25 11.1 52 56 2.6 36.8
12:10 1026 30.3 855 25.25 11.2 52.2 54 2.4 36.3
12:15 1026 30.3 855 25.25 11.6 52.9 52 2.2 35.9
12:20 1026 30.3 855 25.25 12.7 54.8 49 2.4 36.4
12:25 1026 30.3 855 25.25 13.3 55.9 46 2 35.7
12:30 1026 30.3 855 25.25 13.5 56.2 44 1.6 34.9
12:35 1026 30.3 855 25.25 13 55.3 48 2.3 36.2
12:40 1026 30.3 855 25.25 11.9 53.5 51 2.2 36
12:45 1026 30.3 855 25.25 11 51.7 53 1.7 35.1
12:50 1026 30.3 855 25.25 12 53.7 46 0.9 33.5
12:55 1026 30.3 855 25.25 13.4 56 41 0.5 32.9
13:00 1026 30.3 855 25.25 13.6 56.5 42 1 33.7
13:05 1026 30.3 855 25.25 13.7 56.7 40 0.6 33.1
13:10 1026 30.3 855 25.25 13.3 56 47 2.2 35.9
13:15 1026 30.3 855 25.25 12 53.6 50 2.1 35.7
13:20 1026 30.3 855 25.25 11.5 52.6 50 1.6 34.9
13:25 1026 30.3 855 25.25 10.9 51.5 53 1.6 34.9
13:30 1026 30.3 855 25.25 11.2 52.1 52 1.8 35.2
13:35 1026 30.3 855 25.25 10.9 51.6 52 1.5 34.6
13:40 1026 30.3 855 25.25 10.8 51.4 52 1.5 34.7
13:45 1026 30.3 855 25.25 10.6 51 56 2.1 35.9
13:50 1026 30.3 855 25.25 10.4 50.8 56 2 35.7
13:55 1026 30.3 855 25.25 10.6 51.1 54 1.6 34.9
14:00 1026 30.3 855 25.25 10.8 51.4 55 2.1 35.7
14:05 1026 30.3 855 25.25 11 51.8 52 1.6 34.8
14:10 1026 30.3 855 25.25 11.4 52.4 46 0.1 32.2
14:15 1026 30.3 855 25.25 12.5 54.6 44 0.5 33
14:20 1026 30.3 855 25.25 12.7 54.8 42 0.3 32.5
14:25 1026 30.3 855 25.25 12.6 54.7 42 0.1 32.3
14:30 1026 30.3 855 25.25 13 55.4 41 0.3 32.5
14:35 1026 30.3 855 25.25 13.5 56.3 38 -0.5 31.1
14:40 1026 30.3 855 25.25 14.3 57.7 37 -0.1 31.8
14:45 1026 30.3 855 25.25 15.1 59.1 36 0 32.1
14:50 1025 30.27 855 25.25 14.2 57.6 38 0.3 32.5
14:55 1025 30.27 855 25.25 14.9 58.7 36 0.1 32.2
15:00 1026 30.3 855 25.25 14.5 58 39 0.8 33.4
15:05 1026 30.3 855 25.25 12.9 55.1 48 2 35.7
15:10 1026 30.3 855 25.25 10.9 51.6 53 1.8 35.2
15:15 1026 30.3 855 25.25 9.4 48.9 63 2.8 37
15:20 1026 30.3 855 25.25 8.4 47.1 75 4.2 39.5
15:25 1026 30.3 855 25.25 7.9 46.1 74 3.6 38.4
15:30 1026 30.3 855 25.25 7.4 45.3 78 3.8 38.9
15:35 1026 30.3 855 25.25 7.1 44.7 81 4 39.1
15:40 1026 30.3 855 25.25 7 44.6 80 3.7 38.7
15:45 1026 30.3 855 25.25 6.9 44.5 83 4.2 39.6
15:50 1026 30.3 855 25.25 6.9 44.5 84 4.4 40
15:55 1026 30.3 855 25.25 6.9 44.4 85 4.5 40.2
16:00 1026 30.3 855 25.25 6.9 44.4 82 4 39.3
16:05 1026 30.3 855 25.25 7 44.6 80 3.8 38.8
16:10 1026 30.3 855 25.25 7.3 45.1 79 4 39.2
16:15 1026 30.3 855 25.25 7.3 45.1 81 4.2 39.5
16:20 1026 30.3 856 25.28 7.4 45.3 78 3.7 38.7
16:25 1026 30.3 856 25.28 7.5 45.6 78 3.9 39.1
16:30 1026 30.3 856 25.28 8.2 46.8 74 3.9 39
16:35 1026 30.3 856 25.28 9.2 48.5 69 3.9 39
16:40 1026 30.3 856 25.28 9.6 49.2 69 4.2 39.5
16:45 1026 30.3 856 25.28 9.4 48.9 68 3.8 38.8
16:50 1026 30.3 856 25.28 9.2 48.6 70 4 39.2
16:55 1026 30.3 855 25.25 9.1 48.4 67 3.4 38.2
17:00 1026 30.3 855 25.25 8.9 47.9 71 3.9 38.9
17:05 1026 30.3 855 25.25 9 48.2 69 3.7 38.6
17:10 1026 30.3 855 25.25 9.1 48.4 69 3.7 38.7
17:15 1026 30.3 855 25.25 8.8 47.9 69 3.4 38.1
17:20 1026 30.3 855 25.25 8.4 47.1 67 2.7 36.9
17:25 1026 30.3 855 25.25 9 48.3 65 2.8 37
17:30 1026 30.3 855 25.25 9.8 49.6 61 2.7 36.8
17:35 1026 30.3 855 25.25 9.7 49.5 62 2.8 37.1
17:40 1026 30.3 856 25.28 9.7 49.5 63 3 37.3
17:45 1026 30.3 855 25.25 9.7 49.5 63 3 37.4
17:50 1026 30.3 855 25.25 9.8 49.7 63 3.2 37.8
17:55 1026 30.3 855 25.25 9.8 49.7 64 3.4 38.2
18:00 1026 30.3 855 25.25 9.8 49.6 63 3.1 37.6
18:05 1026 30.3 855 25.25 9.8 49.6 61 2.7 36.9
18:10 1026 30.3 855 25.25 10 50.1 61 3 37.4
18:15 1026 30.3 855 25.25 9.9 49.9 62 3 37.4
18:20 1026 30.3 855 25.25 9.6 49.3 66 3.6 38.5
18:25 1026 30.3 855 25.25 9.4 48.9 66 3.5 38.3
18:30 1026 30.3 855 25.25 9.4 48.9 67 3.5 38.3
18:35 1026 30.3 855 25.25 9.3 48.8 66 3.4 38.1
18:40 1026 30.3 856 25.28 9.2 48.6 66 3.1 37.7
18:45 1026 30.3 856 25.28 9.1 48.3 66 3.1 37.5
18:50 1026 30.3 855 25.25 9 48.2 68 3.4 38.2
18:55 1026 30.3 855 25.25 8.9 48.1 69 3.7 38.6
19:00 1026 30.3 855 25.25 8.8 47.8 69 3.5 38.3
19:05 1026 30.3 855 25.25 8.7 47.6 70 3.6 38.5
19:10 1026 30.3 855 25.25 8.6 47.5 71 3.6 38.5
19:15 1026 30.3 855 25.25 8.5 47.4 72 3.7 38.7
19:20 1026 30.3 856 25.28 8.5 47.2 72 3.7 38.6
19:25 1026 30.3 855 25.25 8.4 47.1 73 3.7 38.7
19:30 1026 30.3 855 25.25 8.3 46.9 74 3.9 38.9
19:35 1026 30.3 855 25.25 8.2 46.7 73 3.6 38.4
19:40 1026 30.3 855 25.25 8.2 46.7 72 3.5 38.2
19:45 1026 30.3 855 25.25 8.1 46.5 71 3.2 37.7
19:50 1026 30.3 855 25.25 8 46.4 71 3.1 37.6
19:55 1026 30.3 855 25.25 7.8 46.1 71 3 37.4
20:00 1026 30.3 856 25.28 7.7 45.8 70 2.7 36.8
20:05 1026 30.3 856 25.28 7.7 45.8 71 2.7 36.9
20:10 1026 30.3 856 25.28 7.6 45.6 72 2.9 37.3
20:15 1026 30.3 856 25.28 7.4 45.4 73 3 37.3
20:20 1027 30.33 856 25.28 7.3 45.1 74 2.9 37.3
20:25 1027 30.33 856 25.28 7.2 45 74 3 37.4
20:30 1027 30.33 856 25.28 7.1 44.8 75 2.9 37.2
20:35 1027 30.33 856 25.28 7 44.6 75 2.8 37.1
20:40 1027 30.33 856 25.28 7 44.5 75 2.9 37.3
20:45 1027 30.33 856 25.28 6.9 44.4 75 2.8 37.1
20:50 1027 30.33 856 25.28 6.8 44.3 76 2.9 37.2
20:55 1027 30.33 856 25.28 6.7 44.1 77 2.9 37.2
21:00 1027 30.33 856 25.28 6.6 43.9 77 2.9 37.2
21:05 1027 30.33 856 25.28 6.5 43.7 78 2.9 37.3
21:10 1027 30.33 856 25.28 6.3 43.4 78 2.8 37.1
21:15 1027 30.33 856 25.28 6.2 43.1 79 2.9 37.2
21:20 1027 30.33 856 25.28 6.1 42.9 79 2.7 36.8
21:25 1027 30.33 856 25.28 6.1 43 78 2.6 36.7
21:30 1027 30.33 856 25.28 6.1 43 79 2.7 36.9
21:35 1027 30.33 856 25.28 6 42.8 79 2.7 36.9
21:40 1027 30.33 856 25.28 5.8 42.4 80 2.7 36.8
21:45 1027 30.33 856 25.28 5.6 42 82 2.7 36.8
21:50 1027 30.33 856 25.28 5.3 41.6 82 2.5 36.6
21:55 1027 30.33 856 25.28 5.3 41.5 82 2.5 36.4
22:00 1027 30.33 856 25.28 5.3 41.5 82 2.4 36.3
22:05 1027 30.33 857 25.31 5.2 41.4 82 2.4 36.3
22:10 1027 30.33 857 25.31 5.2 41.3 82 2.4 36.3
22:15 1027 30.33 857 25.31 5 41.1 82 2.3 36.1
22:20 1027 30.33 857 25.31 4.8 40.6 82 2 35.7
22:25 1027 30.33 857 25.31 4.6 40.3 83 1.9 35.4
22:30 1027 30.33 857 25.31 4.6 40.2 83 1.9 35.5
22:35 1027 30.33 857 25.31 4.5 40.1 83 1.8 35.3
22:40 1027 30.33 857 25.31 4.4 40 83 1.8 35.2
22:45 1027 30.33 857 25.31 4.3 39.8 84 1.8 35.2
22:50 1027 30.33 857 25.31 4.4 39.9 83 1.8 35.2
22:55 1027 30.33 857 25.31 4.4 39.9 83 1.7 35
23:00 1027 30.33 857 25.31 4.5 40.1 82 1.6 34.9
23:05 1028 30.36 857 25.31 4.5 40.1 82 1.7 35.1
23:10 1028 30.36 857 25.31 4.5 40 82 1.6 35
23:15 1028 30.36 857 25.31 4.5 40.2 81 1.6 34.9
23:20 1028 30.36 857 25.31 4.5 40 81 1.5 34.7
23:25 1028 30.36 857 25.31 4.5 40.1 80 1.4 34.5
23:30 1028 30.36 857 25.31 4.6 40.2 79 1.3 34.3
23:35 1028 30.36 857 25.31 4.6 40.3 79 1.2 34.2
23:40 1028 30.36 857 25.31 4.6 40.3 79 1.3 34.3
23:45 1028 30.36 857 25.31 4.6 40.4 79 1.3 34.3
23:50 1028 30.36 857 25.31 4.6 40.3 79 1.3 34.3
23:55 1028 30.36 857 25.31 4.5 40.1 79 1.2 34.1
24:00 1028 30.36 857 25.31 4.4 40 79 1.1 34